createdAt,value
2022-09-28T00:00:08.116Z,21.69
2022-09-28T00:00:28.181Z,21.66
2022-09-28T00:00:38.231Z,21.69
2022-09-28T00:00:48.278Z,21.67
2022-09-28T00:00:58.328Z,21.67
2022-09-28T00:01:08.387Z,21.69
2022-09-28T00:01:28.511Z,21.67
2022-09-28T00:01:38.610Z,21.67
2022-09-28T00:01:48.755Z,21.64
2022-09-28T00:01:58.896Z,21.66
2022-09-28T00:02:08.855Z,21.64
2022-09-28T00:02:28.895Z,21.66
2022-09-28T00:02:38.922Z,21.66
2022-09-28T00:02:49.019Z,21.63
2022-09-28T00:02:59.042Z,21.64
2022-09-28T00:03:09.159Z,21.66
2022-09-28T00:03:29.271Z,21.66
2022-09-28T00:03:39.322Z,21.66
2022-09-28T00:03:49.396Z,21.63
2022-09-28T00:03:59.437Z,21.63
2022-09-28T00:04:09.493Z,21.63
2022-09-28T00:04:29.553Z,21.63
2022-09-28T00:04:39.590Z,21.64
2022-09-28T00:04:49.642Z,21.63
2022-09-28T00:04:59.691Z,21.63
2022-09-28T00:05:09.740Z,21.63
2022-09-28T00:05:29.834Z,21.61
2022-09-28T00:05:39.901Z,21.63
2022-09-28T00:05:49.951Z,21.63
2022-09-28T00:06:00.003Z,21.60
2022-09-28T00:06:10.042Z,21.61
2022-09-28T00:06:30.114Z,21.61
2022-09-28T00:06:40.156Z,21.63
2022-09-28T00:06:50.202Z,21.63
2022-09-28T00:07:00.241Z,21.63
2022-09-28T00:07:10.281Z,21.61
2022-09-28T00:07:30.341Z,21.64
2022-09-28T00:07:40.373Z,21.61
2022-09-28T00:07:50.425Z,21.63
2022-09-28T00:08:00.462Z,21.63
2022-09-28T00:08:10.504Z,21.63
2022-09-28T00:08:20.552Z,21.63
2022-09-28T00:08:30.602Z,21.63
2022-09-28T00:08:40.652Z,21.60
2022-09-28T00:08:50.693Z,21.61
2022-09-28T00:09:00.748Z,21.64
2022-09-28T00:09:10.795Z,21.60
2022-09-28T00:09:20.831Z,21.61
2022-09-28T00:09:30.883Z,21.61
2022-09-28T00:09:40.949Z,21.61
2022-09-28T00:09:50.999Z,21.60
2022-09-28T00:10:01.032Z,21.64
2022-09-28T00:10:11.085Z,21.61
2022-09-28T00:10:21.129Z,21.61
2022-09-28T00:10:31.202Z,21.61
2022-09-28T00:10:41.252Z,21.60
2022-09-28T00:10:51.304Z,21.60
2022-09-28T00:11:01.341Z,21.60
2022-09-28T00:11:11.382Z,21.60
2022-09-28T00:11:21.433Z,21.61
2022-09-28T00:11:31.473Z,21.61
2022-09-28T00:11:41.524Z,21.60
2022-09-28T00:11:51.563Z,21.59
2022-09-28T00:12:01.621Z,21.59
2022-09-28T00:12:11.674Z,21.60
2022-09-28T00:12:21.723Z,21.59
2022-09-28T00:12:31.776Z,21.60
2022-09-28T00:12:41.816Z,21.57
2022-09-28T00:12:51.863Z,21.60
2022-09-28T00:13:01.922Z,21.59
2022-09-28T00:13:11.953Z,21.59
2022-09-28T00:13:21.993Z,21.57
2022-09-28T00:13:32.045Z,21.59
2022-09-28T00:13:42.084Z,21.57
2022-09-28T00:13:52.163Z,21.56
2022-09-28T00:14:02.215Z,21.57
2022-09-28T00:14:12.253Z,21.59
2022-09-28T00:14:22.359Z,21.57
2022-09-28T00:14:32.413Z,21.57
2022-09-28T00:14:42.473Z,21.57
2022-09-28T00:14:52.543Z,21.56
2022-09-28T00:15:02.601Z,21.57
2022-09-28T00:15:12.669Z,21.57
2022-09-28T00:15:22.705Z,21.57
2022-09-28T00:15:32.745Z,21.56
2022-09-28T00:15:42.783Z,21.56
2022-09-28T00:15:52.824Z,21.59
2022-09-28T00:16:02.919Z,21.56
2022-09-28T00:16:13.068Z,21.57
2022-09-28T00:16:23.061Z,21.54
2022-09-28T00:16:33.028Z,21.57
2022-09-28T00:16:43.046Z,21.57
2022-09-28T00:16:53.165Z,21.57
2022-09-28T00:17:03.193Z,21.57
2022-09-28T00:17:13.247Z,21.57
2022-09-28T00:17:23.293Z,21.57
2022-09-28T00:17:33.344Z,21.57
2022-09-28T00:17:43.394Z,21.57
2022-09-28T00:17:53.441Z,21.56
2022-09-28T00:18:03.483Z,21.57
2022-09-28T00:18:13.534Z,21.54
2022-09-28T00:18:23.564Z,21.57
2022-09-28T00:18:33.607Z,21.57
2022-09-28T00:18:43.667Z,21.57
2022-09-28T00:18:53.716Z,21.57
2022-09-28T00:19:03.774Z,21.56
2022-09-28T00:19:13.939Z,21.57
2022-09-28T00:19:23.902Z,21.57
2022-09-28T00:19:33.954Z,21.59
2022-09-28T00:19:44.015Z,21.59
2022-09-28T00:19:54.062Z,21.59
2022-09-28T00:20:04.112Z,21.59
2022-09-28T00:20:14.165Z,21.56
2022-09-28T00:20:24.219Z,21.59
2022-09-28T00:20:34.264Z,21.56
2022-09-28T00:20:44.306Z,21.57
2022-09-28T00:20:54.355Z,21.57
2022-09-28T00:21:04.405Z,21.59
2022-09-28T00:21:14.444Z,21.59
2022-09-28T00:21:24.511Z,21.57
2022-09-28T00:21:34.593Z,21.57
2022-09-28T00:21:44.635Z,21.57
2022-09-28T00:21:54.686Z,21.57
2022-09-28T00:22:04.726Z,21.59
2022-09-28T00:22:14.782Z,21.54
2022-09-28T00:22:25.002Z,21.57
2022-09-28T00:22:34.845Z,21.56
2022-09-28T00:22:44.894Z,21.57
2022-09-28T00:22:54.936Z,21.57
2022-09-28T00:23:04.965Z,21.56
2022-09-28T00:23:15.016Z,21.57
2022-09-28T00:23:25.055Z,21.54
2022-09-28T00:23:35.095Z,21.56
2022-09-28T00:23:45.136Z,21.57
2022-09-28T00:23:55.187Z,21.54
2022-09-28T00:24:05.235Z,21.56
2022-09-28T00:24:15.421Z,21.54
2022-09-28T00:24:27.721Z,21.53
2022-09-28T00:24:35.455Z,21.53
2022-09-28T00:24:45.526Z,21.54
2022-09-28T00:24:55.580Z,21.54
2022-09-28T00:25:05.626Z,21.54
2022-09-28T00:25:15.675Z,21.51
2022-09-28T00:25:25.723Z,21.53
2022-09-28T00:25:35.766Z,21.51
2022-09-28T00:25:45.811Z,21.53
2022-09-28T00:25:55.854Z,21.54
2022-09-28T00:26:05.901Z,21.54
2022-09-28T00:26:25.968Z,21.51
2022-09-28T00:26:36.022Z,21.53
2022-09-28T00:26:46.085Z,21.51
2022-09-28T00:26:56.136Z,21.53
2022-09-28T00:27:06.182Z,21.53
2022-09-28T00:27:26.231Z,21.50
2022-09-28T00:27:36.276Z,21.51
2022-09-28T00:27:46.332Z,21.53
2022-09-28T00:27:56.375Z,21.53
2022-09-28T00:28:06.422Z,21.51
2022-09-28T00:28:26.646Z,21.50
2022-09-28T00:28:36.559Z,21.51
2022-09-28T00:28:46.598Z,21.50
2022-09-28T00:28:56.644Z,21.51
2022-09-28T00:29:06.696Z,21.50
2022-09-28T00:29:26.748Z,21.50
2022-09-28T00:29:36.804Z,21.50
2022-09-28T00:29:46.855Z,21.50
2022-09-28T00:29:56.896Z,21.50
2022-09-28T00:30:06.946Z,21.50
2022-09-28T00:30:27.007Z,21.48
2022-09-28T00:30:37.078Z,21.48
2022-09-28T00:30:47.136Z,21.46
2022-09-28T00:30:57.178Z,21.46
2022-09-28T00:31:07.250Z,21.48
2022-09-28T00:31:27.358Z,21.48
2022-09-28T00:31:37.476Z,21.48
2022-09-28T00:31:47.592Z,21.46
2022-09-28T00:31:57.635Z,21.46
2022-09-28T00:32:07.711Z,21.48
2022-09-28T00:32:27.789Z,21.46
2022-09-28T00:32:37.838Z,21.48
2022-09-28T00:32:47.879Z,21.48
2022-09-28T00:32:57.927Z,21.48
2022-09-28T00:33:07.966Z,21.46
2022-09-28T00:33:28.017Z,21.48
2022-09-28T00:33:38.068Z,21.48
2022-09-28T00:33:48.108Z,21.48
2022-09-28T00:33:58.156Z,21.48
2022-09-28T00:34:08.210Z,21.50
2022-09-28T00:34:28.276Z,21.50
2022-09-28T00:34:38.328Z,21.50
2022-09-28T00:34:48.376Z,21.46
2022-09-28T00:34:58.426Z,21.48
2022-09-28T00:35:08.472Z,21.48
2022-09-28T00:35:28.526Z,21.48
2022-09-28T00:35:38.578Z,21.46
2022-09-28T00:35:48.619Z,21.48
2022-09-28T00:35:58.663Z,21.46
2022-09-28T00:36:08.709Z,21.46
2022-09-28T00:36:28.797Z,21.46
2022-09-28T00:36:38.861Z,21.46
2022-09-28T00:36:48.888Z,21.48
2022-09-28T00:36:58.930Z,21.50
2022-09-28T00:37:08.984Z,21.48
2022-09-28T00:37:29.038Z,21.45
2022-09-28T00:37:39.088Z,21.46
2022-09-28T00:37:49.128Z,21.48
2022-09-28T00:37:59.209Z,21.46
2022-09-28T00:38:09.237Z,21.46
2022-09-28T00:38:29.292Z,21.48
2022-09-28T00:38:39.329Z,21.46
2022-09-28T00:38:49.370Z,21.46
2022-09-28T00:38:59.420Z,21.45
2022-09-28T00:39:09.518Z,21.45
2022-09-28T00:39:29.588Z,21.45
2022-09-28T00:39:39.640Z,21.46
2022-09-28T00:39:49.683Z,21.44
2022-09-28T00:39:59.738Z,21.46
2022-09-28T00:40:09.787Z,21.44
2022-09-28T00:40:29.907Z,21.45
2022-09-28T00:40:40.057Z,21.44
2022-09-28T00:40:50.058Z,21.45
2022-09-28T00:41:00.087Z,21.44
2022-09-28T00:41:10.058Z,21.45
2022-09-28T00:41:30.132Z,21.41
2022-09-28T00:41:40.179Z,21.42
2022-09-28T00:41:50.233Z,21.42
2022-09-28T00:42:00.292Z,21.41
2022-09-28T00:42:10.340Z,21.44
2022-09-28T00:42:30.400Z,21.39
2022-09-28T00:42:40.450Z,21.41
2022-09-28T00:42:50.497Z,21.39
2022-09-28T00:43:00.558Z,21.41
2022-09-28T00:43:10.620Z,21.38
2022-09-28T00:43:20.659Z,21.39
2022-09-28T00:43:30.706Z,21.41
2022-09-28T00:43:40.759Z,21.41
2022-09-28T00:43:50.809Z,21.39
2022-09-28T00:44:00.872Z,21.41
2022-09-28T00:44:10.926Z,21.39
2022-09-28T00:44:20.970Z,21.39
2022-09-28T00:44:31.020Z,21.41
2022-09-28T00:44:41.082Z,21.41
2022-09-28T00:44:51.130Z,21.39
2022-09-28T00:45:01.169Z,21.42
2022-09-28T00:45:11.229Z,21.39
2022-09-28T00:45:21.259Z,21.41
2022-09-28T00:45:31.354Z,21.39
2022-09-28T00:45:41.468Z,21.41
2022-09-28T00:45:51.572Z,21.39
2022-09-28T00:46:01.678Z,21.38
2022-09-28T00:46:11.772Z,21.39
2022-09-28T00:46:21.841Z,21.36
2022-09-28T00:46:31.892Z,21.38
2022-09-28T00:46:41.929Z,21.38
2022-09-28T00:46:51.971Z,21.38
2022-09-28T00:47:02.033Z,21.36
2022-09-28T00:47:12.080Z,21.36
2022-09-28T00:47:22.159Z,21.36
2022-09-28T00:47:32.220Z,21.36
2022-09-28T00:47:42.271Z,21.35
2022-09-28T00:47:52.318Z,21.38
2022-09-28T00:48:02.371Z,21.35
2022-09-28T00:48:12.420Z,21.36
2022-09-28T00:48:22.476Z,21.35
2022-09-28T00:48:32.519Z,21.35
2022-09-28T00:48:42.581Z,21.38
2022-09-28T00:48:52.621Z,21.36
2022-09-28T00:49:02.671Z,21.38
2022-09-28T00:49:12.723Z,21.36
2022-09-28T00:49:22.777Z,21.38
2022-09-28T00:49:32.821Z,21.38
2022-09-28T00:49:42.839Z,21.38
2022-09-28T00:49:52.890Z,21.36
2022-09-28T00:50:02.951Z,21.38
2022-09-28T00:50:13.013Z,21.38
2022-09-28T00:50:23.062Z,21.36
2022-09-28T00:50:33.102Z,21.39
2022-09-28T00:50:43.162Z,21.38
2022-09-28T00:50:53.210Z,21.39
2022-09-28T00:51:03.260Z,21.35
2022-09-28T00:51:13.303Z,21.41
2022-09-28T00:51:23.345Z,21.39
2022-09-28T00:51:33.381Z,21.41
2022-09-28T00:51:43.420Z,21.41
2022-09-28T00:51:53.461Z,21.41
2022-09-28T00:52:03.509Z,21.39
2022-09-28T00:52:13.555Z,21.39
2022-09-28T00:52:23.605Z,21.39
2022-09-28T00:52:33.662Z,21.38
2022-09-28T00:52:43.722Z,21.38
2022-09-28T00:52:53.772Z,21.36
2022-09-28T00:53:03.812Z,21.36
2022-09-28T00:53:13.862Z,21.38
2022-09-28T00:53:23.914Z,21.36
2022-09-28T00:53:33.961Z,21.38
2022-09-28T00:53:44.019Z,21.38
2022-09-28T00:53:54.066Z,21.38
2022-09-28T00:54:04.104Z,21.38
2022-09-28T00:54:14.142Z,21.39
2022-09-28T00:54:24.179Z,21.39
2022-09-28T00:54:34.231Z,21.39
2022-09-28T00:54:44.293Z,21.38
2022-09-28T00:54:54.354Z,21.36
2022-09-28T00:55:04.398Z,21.38
2022-09-28T00:55:14.464Z,21.36
2022-09-28T00:55:24.510Z,21.35
2022-09-28T00:55:34.560Z,21.36
2022-09-28T00:55:44.610Z,21.38
2022-09-28T00:55:54.661Z,21.36
2022-09-28T00:56:04.704Z,21.36
2022-09-28T00:56:14.770Z,21.36
2022-09-28T00:56:24.804Z,21.38
2022-09-28T00:56:34.852Z,21.36
2022-09-28T00:56:44.899Z,21.38
2022-09-28T00:56:54.954Z,21.35
2022-09-28T00:57:05.002Z,21.36
2022-09-28T00:57:25.101Z,21.36
2022-09-28T00:57:35.142Z,21.34
2022-09-28T00:57:45.187Z,21.36
2022-09-28T00:57:55.231Z,21.34
2022-09-28T00:58:05.283Z,21.35
2022-09-28T00:58:25.393Z,21.36
2022-09-28T00:58:35.444Z,21.32
2022-09-28T00:58:45.492Z,21.34
2022-09-28T00:58:55.542Z,21.34
2022-09-28T00:59:05.583Z,21.32
2022-09-28T00:59:25.661Z,21.32
2022-09-28T00:59:35.703Z,21.32
2022-09-28T00:59:45.753Z,21.32
2022-09-28T00:59:55.812Z,21.32
2022-09-28T01:00:05.884Z,21.32
2022-09-28T01:00:25.944Z,21.32
2022-09-28T01:00:36.046Z,21.32
2022-09-28T01:00:46.114Z,21.34
2022-09-28T01:00:56.229Z,21.32
2022-09-28T01:01:06.252Z,21.30
2022-09-28T01:01:26.514Z,21.30
2022-09-28T01:01:36.442Z,21.30
2022-09-28T01:01:46.526Z,21.30
2022-09-28T01:01:56.627Z,21.29
2022-09-28T01:02:06.758Z,21.29
2022-09-28T01:02:26.859Z,21.29
2022-09-28T01:02:36.823Z,21.27
2022-09-28T01:02:46.874Z,21.27
2022-09-28T01:02:56.912Z,21.27
2022-09-28T01:03:06.955Z,21.27
2022-09-28T01:03:27.015Z,21.27
2022-09-28T01:03:37.053Z,21.29
2022-09-28T01:03:47.097Z,21.29
2022-09-28T01:03:57.159Z,21.29
2022-09-28T01:04:07.232Z,21.29
2022-09-28T01:04:29.935Z,21.27
2022-09-28T01:04:37.396Z,21.29
2022-09-28T01:04:47.455Z,21.30
2022-09-28T01:04:57.494Z,21.30
2022-09-28T01:05:07.536Z,21.32
2022-09-28T01:05:27.594Z,21.30
2022-09-28T01:05:37.645Z,21.27
2022-09-28T01:05:47.684Z,21.29
2022-09-28T01:05:57.745Z,21.27
2022-09-28T01:06:07.802Z,21.29
2022-09-28T01:06:27.854Z,21.29
2022-09-28T01:06:37.901Z,21.29
2022-09-28T01:06:47.957Z,21.29
2022-09-28T01:06:58.020Z,21.27
2022-09-28T01:07:08.096Z,21.30
2022-09-28T01:07:28.181Z,21.29
2022-09-28T01:07:38.225Z,21.27
2022-09-28T01:07:48.263Z,21.29
2022-09-28T01:07:58.322Z,21.27
2022-09-28T01:08:08.368Z,21.27
2022-09-28T01:08:28.447Z,21.29
2022-09-28T01:08:38.501Z,21.27
2022-09-28T01:08:48.545Z,21.27
2022-09-28T01:08:58.588Z,21.29
2022-09-28T01:09:08.627Z,21.29
2022-09-28T01:09:28.685Z,21.29
2022-09-28T01:09:38.735Z,21.27
2022-09-28T01:09:48.777Z,21.27
2022-09-28T01:09:58.815Z,21.26
2022-09-28T01:10:08.856Z,21.24
2022-09-28T01:10:28.915Z,21.26
2022-09-28T01:10:38.955Z,21.24
2022-09-28T01:10:49.000Z,21.24
2022-09-28T01:10:59.054Z,21.24
2022-09-28T01:11:09.086Z,21.23
2022-09-28T01:11:29.144Z,21.24
2022-09-28T01:11:39.201Z,21.24
2022-09-28T01:11:49.235Z,21.24
2022-09-28T01:11:59.286Z,21.21
2022-09-28T01:12:09.334Z,21.21
2022-09-28T01:12:29.516Z,21.20
2022-09-28T01:12:39.567Z,21.20
2022-09-28T01:12:49.603Z,21.21
2022-09-28T01:12:59.662Z,21.19
2022-09-28T01:13:09.726Z,21.20
2022-09-28T01:13:29.794Z,21.20
2022-09-28T01:13:39.846Z,21.20
2022-09-28T01:13:49.885Z,21.19
2022-09-28T01:13:59.945Z,21.17
2022-09-28T01:14:09.986Z,21.17
2022-09-28T01:14:30.066Z,21.17
2022-09-28T01:14:40.115Z,21.17
2022-09-28T01:14:50.158Z,21.19
2022-09-28T01:15:00.203Z,21.17
2022-09-28T01:15:10.252Z,21.16
2022-09-28T01:15:30.337Z,21.19
2022-09-28T01:15:40.387Z,21.17
2022-09-28T01:15:50.427Z,21.17
2022-09-28T01:16:00.511Z,21.17
2022-09-28T01:16:10.597Z,21.16
2022-09-28T01:16:20.734Z,21.16
2022-09-28T01:16:30.881Z,21.14
2022-09-28T01:16:40.871Z,21.16
2022-09-28T01:16:51.034Z,21.17
2022-09-28T01:17:00.960Z,21.14
2022-09-28T01:17:11.006Z,21.14
2022-09-28T01:17:21.056Z,21.13
2022-09-28T01:17:31.108Z,21.16
2022-09-28T01:17:41.158Z,21.16
2022-09-28T01:17:51.203Z,21.16
2022-09-28T01:18:01.255Z,21.14
2022-09-28T01:18:11.304Z,21.16
2022-09-28T01:18:21.351Z,21.16
2022-09-28T01:18:31.397Z,21.16
2022-09-28T01:18:41.457Z,21.17
2022-09-28T01:18:51.507Z,21.16
2022-09-28T01:19:01.557Z,21.14
2022-09-28T01:19:11.636Z,21.16
2022-09-28T01:19:21.687Z,21.14
2022-09-28T01:19:31.736Z,21.16
2022-09-28T01:19:41.782Z,21.16
2022-09-28T01:19:51.818Z,21.14
2022-09-28T01:20:01.870Z,21.14
2022-09-28T01:20:11.919Z,21.13
2022-09-28T01:20:21.959Z,21.14
2022-09-28T01:20:32.011Z,21.13
2022-09-28T01:20:42.056Z,21.13
2022-09-28T01:20:52.113Z,21.13
2022-09-28T01:21:02.148Z,21.14
2022-09-28T01:21:12.200Z,21.13
2022-09-28T01:21:22.311Z,21.11
2022-09-28T01:21:32.379Z,21.13
2022-09-28T01:21:42.417Z,21.13
2022-09-28T01:21:52.457Z,21.09
2022-09-28T01:22:02.517Z,21.11
2022-09-28T01:22:12.567Z,21.13
2022-09-28T01:22:22.599Z,21.13
2022-09-28T01:22:32.669Z,21.11
2022-09-28T01:22:42.709Z,21.11
2022-09-28T01:22:52.757Z,21.11
2022-09-28T01:23:02.806Z,21.11
2022-09-28T01:23:12.851Z,21.09
2022-09-28T01:23:22.899Z,21.11
2022-09-28T01:23:32.978Z,21.11
2022-09-28T01:23:43.028Z,21.13
2022-09-28T01:23:53.062Z,21.14
2022-09-28T01:24:03.111Z,21.09
2022-09-28T01:24:13.177Z,21.13
2022-09-28T01:24:23.248Z,21.13
2022-09-28T01:24:33.298Z,21.13
2022-09-28T01:24:43.348Z,21.11
2022-09-28T01:24:53.397Z,21.14
2022-09-28T01:25:03.449Z,21.13
2022-09-28T01:25:13.498Z,21.13
2022-09-28T01:25:23.548Z,21.11
2022-09-28T01:25:33.603Z,21.11
2022-09-28T01:25:43.646Z,21.09
2022-09-28T01:25:53.691Z,21.09
2022-09-28T01:26:03.727Z,21.09
2022-09-28T01:26:13.779Z,21.08
2022-09-28T01:26:23.830Z,21.08
2022-09-28T01:26:33.871Z,21.09
2022-09-28T01:26:43.917Z,21.08
2022-09-28T01:26:53.959Z,21.08
2022-09-28T01:27:04.004Z,21.08
2022-09-28T01:27:14.038Z,21.08
2022-09-28T01:27:24.089Z,21.09
2022-09-28T01:27:34.135Z,21.09
2022-09-28T01:27:44.195Z,21.06
2022-09-28T01:27:54.229Z,21.08
2022-09-28T01:28:04.279Z,21.08
2022-09-28T01:28:24.369Z,21.06
2022-09-28T01:28:34.410Z,21.08
2022-09-28T01:28:44.450Z,21.05
2022-09-28T01:28:54.492Z,21.06
2022-09-28T01:29:04.547Z,21.06
2022-09-28T01:29:24.610Z,21.05
2022-09-28T01:29:34.649Z,21.05
2022-09-28T01:29:44.684Z,21.04
2022-09-28T01:29:54.729Z,21.04
2022-09-28T01:30:04.789Z,21.04
2022-09-28T01:30:24.860Z,21.05
2022-09-28T01:30:34.900Z,21.02
2022-09-28T01:30:44.948Z,21.04
2022-09-28T01:30:55.000Z,21.05
2022-09-28T01:31:05.050Z,21.04
2022-09-28T01:31:25.139Z,21.04
2022-09-28T01:31:35.244Z,21.05
2022-09-28T01:31:45.398Z,21.04
2022-09-28T01:31:55.503Z,21.04
2022-09-28T01:32:05.551Z,21.06
2022-09-28T01:32:25.618Z,21.05
2022-09-28T01:32:35.649Z,21.04
2022-09-28T01:32:45.698Z,21.04
2022-09-28T01:32:55.741Z,21.04
2022-09-28T01:33:05.796Z,21.05
2022-09-28T01:33:25.896Z,21.05
2022-09-28T01:33:35.921Z,21.04
2022-09-28T01:33:45.983Z,21.04
2022-09-28T01:33:56.041Z,21.04
2022-09-28T01:34:06.087Z,21.04
2022-09-28T01:34:26.140Z,21.04
2022-09-28T01:34:36.189Z,21.04
2022-09-28T01:34:46.230Z,21.04
2022-09-28T01:34:56.290Z,21.04
2022-09-28T01:35:06.545Z,21.02
2022-09-28T01:35:26.632Z,21.02
2022-09-28T01:35:36.539Z,21.02
2022-09-28T01:35:46.583Z,21.01
2022-09-28T01:35:56.621Z,21.02
2022-09-28T01:36:06.705Z,21.01
2022-09-28T01:36:26.744Z,21.01
2022-09-28T01:36:36.780Z,20.99
2022-09-28T01:36:46.824Z,20.99
2022-09-28T01:36:56.861Z,20.98
2022-09-28T01:37:06.922Z,21.01
2022-09-28T01:37:26.990Z,21.01
2022-09-28T01:37:37.041Z,21.01
2022-09-28T01:37:47.090Z,21.01
2022-09-28T01:37:57.139Z,20.98
2022-09-28T01:38:07.185Z,20.98
2022-09-28T01:38:27.241Z,20.98
2022-09-28T01:38:37.281Z,20.98
2022-09-28T01:38:47.342Z,20.98
2022-09-28T01:38:57.390Z,20.96
2022-09-28T01:39:07.461Z,20.98
2022-09-28T01:39:27.502Z,20.98
2022-09-28T01:39:37.543Z,20.98
2022-09-28T01:39:47.593Z,20.99
2022-09-28T01:39:57.640Z,20.98
2022-09-28T01:40:07.681Z,20.99
2022-09-28T01:40:27.798Z,20.99
2022-09-28T01:40:37.957Z,20.99
2022-09-28T01:40:48.100Z,20.98
2022-09-28T01:40:58.072Z,20.99
2022-09-28T01:41:08.151Z,20.99
2022-09-28T01:41:28.221Z,20.98
2022-09-28T01:41:38.294Z,20.98
2022-09-28T01:41:48.344Z,20.99
2022-09-28T01:41:58.382Z,20.98
2022-09-28T01:42:08.445Z,20.99
2022-09-28T01:42:28.517Z,20.98
2022-09-28T01:42:38.552Z,21.01
2022-09-28T01:42:48.597Z,20.99
2022-09-28T01:42:58.631Z,20.98
2022-09-28T01:43:08.673Z,20.98
2022-09-28T01:43:28.744Z,20.98
2022-09-28T01:43:38.793Z,20.99
2022-09-28T01:43:48.823Z,20.98
2022-09-28T01:43:58.872Z,20.96
2022-09-28T01:44:08.922Z,20.98
2022-09-28T01:44:28.999Z,20.98
2022-09-28T01:44:39.042Z,20.98
2022-09-28T01:44:49.081Z,20.99
2022-09-28T01:44:59.114Z,20.98
2022-09-28T01:45:09.154Z,20.99
2022-09-28T01:45:29.237Z,20.98
2022-09-28T01:45:39.353Z,20.98
2022-09-28T01:45:49.506Z,20.98
2022-09-28T01:45:59.475Z,20.98
2022-09-28T01:46:09.465Z,20.99
2022-09-28T01:46:29.535Z,20.99
2022-09-28T01:46:39.587Z,20.96
2022-09-28T01:46:49.621Z,20.99
2022-09-28T01:46:59.674Z,20.98
2022-09-28T01:47:09.714Z,20.99
2022-09-28T01:47:29.774Z,20.98
2022-09-28T01:47:39.825Z,20.98
2022-09-28T01:47:49.854Z,20.98
2022-09-28T01:47:59.906Z,20.99
2022-09-28T01:48:09.953Z,20.98
2022-09-28T01:48:30.015Z,20.98
2022-09-28T01:48:40.075Z,20.96
2022-09-28T01:48:50.133Z,20.98
2022-09-28T01:49:00.181Z,20.98
2022-09-28T01:49:10.275Z,20.98
2022-09-28T01:49:30.334Z,20.98
2022-09-28T01:49:40.373Z,20.95
2022-09-28T01:49:50.415Z,20.95
2022-09-28T01:50:00.465Z,20.95
2022-09-28T01:50:10.517Z,20.95
2022-09-28T01:50:20.561Z,20.96
2022-09-28T01:50:30.614Z,20.95
2022-09-28T01:50:40.685Z,20.96
2022-09-28T01:50:50.724Z,20.95
2022-09-28T01:51:00.773Z,20.96
2022-09-28T01:51:10.824Z,20.96
2022-09-28T01:51:20.871Z,20.95
2022-09-28T01:51:30.904Z,20.95
2022-09-28T01:51:40.944Z,20.95
2022-09-28T01:51:50.991Z,20.95
2022-09-28T01:52:01.032Z,20.96
2022-09-28T01:52:11.074Z,20.93
2022-09-28T01:52:21.123Z,20.93
2022-09-28T01:52:31.167Z,20.93
2022-09-28T01:52:41.215Z,20.91
2022-09-28T01:52:51.261Z,20.93
2022-09-28T01:53:01.304Z,20.93
2022-09-28T01:53:11.345Z,20.93
2022-09-28T01:53:21.402Z,20.93
2022-09-28T01:53:31.445Z,20.95
2022-09-28T01:53:41.495Z,20.93
2022-09-28T01:53:51.535Z,20.93
2022-09-28T01:54:01.589Z,20.91
2022-09-28T01:54:11.625Z,20.91
2022-09-28T01:54:21.744Z,20.93
2022-09-28T01:54:31.786Z,20.93
2022-09-28T01:54:41.836Z,20.91
2022-09-28T01:54:51.884Z,20.93
2022-09-28T01:55:01.934Z,20.91
2022-09-28T01:55:11.979Z,20.91
2022-09-28T01:55:22.056Z,20.93
2022-09-28T01:55:32.032Z,20.90
2022-09-28T01:55:42.076Z,20.90
2022-09-28T01:55:52.115Z,20.93
2022-09-28T01:56:02.154Z,20.95
2022-09-28T01:56:12.197Z,20.95
2022-09-28T01:56:22.347Z,20.93
2022-09-28T01:56:32.255Z,20.95
2022-09-28T01:56:42.290Z,20.95
2022-09-28T01:56:52.324Z,20.96
2022-09-28T01:57:02.375Z,20.95
2022-09-28T01:57:12.451Z,20.95
2022-09-28T01:57:22.506Z,20.96
2022-09-28T01:57:32.557Z,20.93
2022-09-28T01:57:42.605Z,20.93
2022-09-28T01:57:52.657Z,20.93
2022-09-28T01:58:02.718Z,20.93
2022-09-28T01:58:12.756Z,20.91
2022-09-28T01:58:22.795Z,20.91
2022-09-28T01:58:32.825Z,20.93
2022-09-28T01:58:42.867Z,20.93
2022-09-28T01:58:52.914Z,20.95
2022-09-28T01:59:02.964Z,20.93
2022-09-28T01:59:13.015Z,20.93
2022-09-28T01:59:23.076Z,20.93
2022-09-28T01:59:33.125Z,20.93
2022-09-28T01:59:43.172Z,20.91
2022-09-28T01:59:53.217Z,20.93
2022-09-28T02:00:03.266Z,20.93
2022-09-28T02:00:13.308Z,20.93
2022-09-28T02:00:23.357Z,20.90
2022-09-28T02:00:33.490Z,20.91
2022-09-28T02:00:43.592Z,20.90
2022-09-28T02:00:53.706Z,20.90
2022-09-28T02:01:03.862Z,20.91
2022-09-28T02:01:23.796Z,20.89
2022-09-28T02:01:33.826Z,20.90
2022-09-28T02:01:43.929Z,20.90
2022-09-28T02:01:54.028Z,20.91
2022-09-28T02:02:04.107Z,20.90
2022-09-28T02:02:24.261Z,20.90
2022-09-28T02:02:34.277Z,20.90
2022-09-28T02:02:44.206Z,20.90
2022-09-28T02:02:54.247Z,20.90
2022-09-28T02:03:04.316Z,20.89
2022-09-28T02:03:24.388Z,20.87
2022-09-28T02:03:34.439Z,20.89
2022-09-28T02:03:44.507Z,20.90
2022-09-28T02:03:54.554Z,20.90
2022-09-28T02:04:04.606Z,20.87
2022-09-28T02:04:24.667Z,20.87
2022-09-28T02:04:34.699Z,20.87
2022-09-28T02:04:44.737Z,20.86
2022-09-28T02:04:54.785Z,20.87
2022-09-28T02:05:04.843Z,20.89
2022-09-28T02:05:24.909Z,20.87
2022-09-28T02:05:34.965Z,20.87
2022-09-28T02:05:45.022Z,20.87
2022-09-28T02:05:55.057Z,20.87
2022-09-28T02:06:05.098Z,20.87
2022-09-28T02:06:25.167Z,20.89
2022-09-28T02:06:35.224Z,20.87
2022-09-28T02:06:45.258Z,20.86
2022-09-28T02:06:55.306Z,20.86
2022-09-28T02:07:05.363Z,20.87
2022-09-28T02:07:25.434Z,20.87
2022-09-28T02:07:35.478Z,20.86
2022-09-28T02:07:45.536Z,20.86
2022-09-28T02:07:55.569Z,20.86
2022-09-28T02:08:05.654Z,20.84
2022-09-28T02:08:25.720Z,20.86
2022-09-28T02:08:35.775Z,20.84
2022-09-28T02:08:45.820Z,20.84
2022-09-28T02:08:55.867Z,20.84
2022-09-28T02:09:05.914Z,20.84
2022-09-28T02:09:27.678Z,20.83
2022-09-28T02:09:36.028Z,20.83
2022-09-28T02:09:46.072Z,20.84
2022-09-28T02:09:56.112Z,20.84
2022-09-28T02:10:06.199Z,20.83
2022-09-28T02:10:26.279Z,20.84
2022-09-28T02:10:36.322Z,20.84
2022-09-28T02:10:46.369Z,20.84
2022-09-28T02:10:56.415Z,20.84
2022-09-28T02:11:06.460Z,20.84
2022-09-28T02:11:26.591Z,20.83
2022-09-28T02:11:36.640Z,20.83
2022-09-28T02:11:46.694Z,20.81
2022-09-28T02:11:56.726Z,20.84
2022-09-28T02:12:06.777Z,20.84
2022-09-28T02:12:26.837Z,20.86
2022-09-28T02:12:36.878Z,20.86
2022-09-28T02:12:46.931Z,20.83
2022-09-28T02:12:56.973Z,20.86
2022-09-28T02:13:07.041Z,20.83
2022-09-28T02:13:27.088Z,20.84
2022-09-28T02:13:37.130Z,20.87
2022-09-28T02:13:47.169Z,20.84
2022-09-28T02:13:57.218Z,20.84
2022-09-28T02:14:07.264Z,20.84
2022-09-28T02:14:27.381Z,20.84
2022-09-28T02:14:37.428Z,20.84
2022-09-28T02:14:47.469Z,20.83
2022-09-28T02:14:57.520Z,20.84
2022-09-28T02:15:07.577Z,20.83
2022-09-28T02:15:27.629Z,20.81
2022-09-28T02:15:37.680Z,20.83
2022-09-28T02:15:47.731Z,20.81
2022-09-28T02:15:57.828Z,20.83
2022-09-28T02:16:07.892Z,20.81
2022-09-28T02:16:27.998Z,20.80
2022-09-28T02:16:38.091Z,20.80
2022-09-28T02:16:48.078Z,20.81
2022-09-28T02:16:58.120Z,20.79
2022-09-28T02:17:08.167Z,20.81
2022-09-28T02:17:28.249Z,20.79
2022-09-28T02:17:38.298Z,20.80
2022-09-28T02:17:48.350Z,20.80
2022-09-28T02:17:58.399Z,20.80
2022-09-28T02:18:08.447Z,20.79
2022-09-28T02:18:28.512Z,20.80
2022-09-28T02:18:38.568Z,20.79
2022-09-28T02:18:48.611Z,20.80
2022-09-28T02:18:58.661Z,20.79
2022-09-28T02:19:08.701Z,20.79
2022-09-28T02:19:28.794Z,20.80
2022-09-28T02:19:38.837Z,20.80
2022-09-28T02:19:48.891Z,20.79
2022-09-28T02:19:58.945Z,20.80
2022-09-28T02:20:08.991Z,20.79
2022-09-28T02:20:29.049Z,20.79
2022-09-28T02:20:39.120Z,20.80
2022-09-28T02:20:49.169Z,20.80
2022-09-28T02:20:59.221Z,20.80
2022-09-28T02:21:09.267Z,20.80
2022-09-28T02:21:29.336Z,20.81
2022-09-28T02:21:39.381Z,20.80
2022-09-28T02:21:49.422Z,20.81
2022-09-28T02:21:59.492Z,20.81
2022-09-28T02:22:09.533Z,20.80
2022-09-28T02:22:29.592Z,20.80
2022-09-28T02:22:39.640Z,20.80
2022-09-28T02:22:49.681Z,20.79
2022-09-28T02:22:59.731Z,20.79
2022-09-28T02:23:09.772Z,20.76
2022-09-28T02:23:29.828Z,20.79
2022-09-28T02:23:39.912Z,20.79
2022-09-28T02:23:49.962Z,20.79
2022-09-28T02:24:00.010Z,20.80
2022-09-28T02:24:10.071Z,20.77
2022-09-28T02:24:30.121Z,20.77